createdAt,value
2018-06-12T00:01:19.985Z,72.7
2018-06-12T00:06:19.853Z,73.5
2018-06-12T00:11:19.683Z,73.5
2018-06-12T00:16:19.910Z,72.4
2018-06-12T00:21:19.731Z,73.4
2018-06-12T00:26:19.893Z,72.1
2018-06-12T00:31:19.744Z,70.6
2018-06-12T00:36:19.768Z,70.1
2018-06-12T00:41:19.778Z,70.4
2018-06-12T00:46:31.776Z,70.3
2018-06-12T00:51:31.513Z,69.6
2018-06-12T00:56:31.514Z,69.5
2018-06-12T01:01:31.508Z,69.8
2018-06-12T01:06:31.500Z,69.8
2018-06-12T01:11:32.596Z,69.9
2018-06-12T01:16:32.325Z,68.9
2018-06-12T01:21:32.327Z,70.2
2018-06-12T01:26:32.437Z,69.6
2018-06-12T01:31:32.329Z,70.7
2018-06-12T01:36:32.487Z,71.6
2018-06-12T01:41:32.473Z,71.6
2018-06-12T01:46:32.347Z,70.5
2018-06-12T01:51:32.348Z,70.8
2018-06-12T01:56:44.542Z,71.4
2018-06-12T02:01:44.484Z,72.9
2018-06-12T02:06:44.304Z,72.5
2018-06-12T02:11:44.501Z,74.2
2018-06-12T02:16:44.485Z,73.7
2018-06-12T02:21:44.273Z,74.4
2018-06-12T02:26:44.453Z,74.6
2018-06-12T02:31:44.299Z,74
2018-06-12T02:36:45.377Z,75
2018-06-12T02:41:57.723Z,75.4
2018-06-12T02:46:57.462Z,76.4
2018-06-12T02:51:57.449Z,76.5
2018-06-12T02:56:57.468Z,77.3
2018-06-12T03:01:57.586Z,77.2
2018-06-12T03:06:57.765Z,76.9
2018-06-12T03:11:57.467Z,78.1
2018-06-12T03:16:58.936Z,79.6
2018-06-12T03:21:58.935Z,80
2018-06-12T03:27:09.361Z,80.7
2018-06-12T03:32:09.085Z,80.1
2018-06-12T03:37:09.048Z,82.2
2018-06-12T03:42:09.292Z,80
2018-06-12T03:47:09.262Z,82.5
2018-06-12T03:52:09.109Z,82.2
2018-06-12T03:57:09.225Z,82.6
2018-06-12T04:02:09.632Z,82.4
2018-06-12T04:07:09.351Z,82.2
2018-06-12T04:12:22.010Z,81.9
2018-06-12T04:17:21.751Z,82
2018-06-12T04:22:21.734Z,83.9
2018-06-12T04:27:21.750Z,82.1
2018-06-12T04:32:21.854Z,82.1
2018-06-12T04:37:21.743Z,82.8
2018-06-12T04:42:21.930Z,82
2018-06-12T04:47:21.756Z,81.6
2018-06-12T04:52:21.780Z,81
2018-06-12T04:57:33.726Z,80.9
2018-06-12T05:02:33.654Z,79.3
2018-06-12T05:07:33.684Z,78.6
2018-06-12T05:12:33.634Z,78.5
2018-06-12T05:17:33.650Z,77.9
2018-06-12T05:22:33.438Z,75.7
2018-06-12T05:27:33.595Z,76
2018-06-12T05:32:33.652Z,76.2
2018-06-12T05:37:33.459Z,74
2018-06-12T05:42:33.598Z,72.3
2018-06-12T05:47:33.687Z,71.9
2018-06-12T05:52:33.464Z,70.3
2018-06-12T05:57:35.915Z,67.8
2018-06-12T06:02:35.629Z,68.5
2018-06-12T06:07:46.137Z,66
2018-06-12T06:12:45.992Z,66.2
2018-06-12T06:17:46.072Z,64.6
2018-06-12T06:22:46.079Z,64.8
2018-06-12T06:27:45.873Z,65.9
2018-06-12T06:32:45.818Z,65.1
2018-06-12T06:37:45.878Z,66.2
2018-06-12T06:42:45.818Z,65.7
2018-06-12T06:47:45.895Z,67.3
2018-06-12T06:52:57.452Z,67.1
2018-06-12T06:57:57.364Z,66.9
2018-06-12T07:02:57.392Z,66.9
2018-06-12T07:07:57.177Z,66.3
2018-06-12T07:12:57.316Z,65.9
2018-06-12T07:17:57.385Z,67
2018-06-12T07:22:57.209Z,66.9
2018-06-12T07:27:58.515Z,67.3
2018-06-12T07:32:58.419Z,66
2018-06-12T07:38:11.698Z,65
2018-06-12T07:43:11.434Z,63.7
2018-06-12T07:48:11.629Z,63.5
2018-06-12T07:53:11.527Z,62.7
2018-06-12T07:58:11.599Z,62.6
2018-06-12T08:03:11.414Z,61.6
2018-06-12T08:08:11.423Z,60.1
2018-06-12T08:13:12.140Z,58.5
2018-06-12T08:18:12.000Z,59.6
2018-06-12T08:23:24.380Z,59.2
2018-06-12T08:28:24.299Z,56.7
2018-06-12T08:33:24.092Z,56.7
2018-06-12T08:38:24.045Z,55.4
2018-06-12T08:43:24.300Z,58.1
2018-06-12T08:48:27.337Z,56.6
2018-06-12T08:53:27.546Z,54.7
2018-06-12T08:58:29.778Z,55.5
2018-06-12T09:03:29.635Z,57.5
2018-06-12T09:08:41.768Z,56.6
2018-06-12T09:13:41.660Z,55.6
2018-06-12T09:18:41.594Z,55.6
2018-06-12T09:23:41.670Z,53.9
2018-06-12T09:28:41.733Z,55.1
2018-06-12T09:33:41.485Z,55.3
2018-06-12T09:38:41.673Z,54.8
2018-06-12T09:43:45.060Z,54.4
2018-06-12T09:48:44.976Z,53.9
2018-06-12T09:53:57.842Z,53
2018-06-12T09:58:57.790Z,52.4
2018-06-12T10:03:57.707Z,51.3
2018-06-12T10:08:57.753Z,51.4
2018-06-12T10:13:57.796Z,51.7
2018-06-12T10:18:57.717Z,53.9
2018-06-12T10:23:57.786Z,51.5
2018-06-12T10:28:59.961Z,52.4
2018-06-12T10:33:59.880Z,51.7
2018-06-12T10:39:12.559Z,52.8
2018-06-12T10:44:12.201Z,51.9
2018-06-12T10:49:12.470Z,50.6
2018-06-12T10:54:12.423Z,49.7
2018-06-12T10:59:13.455Z,50
2018-06-12T11:04:12.480Z,48.7
2018-06-12T11:09:12.267Z,48.6
2018-06-12T11:14:13.666Z,46.8
2018-06-12T11:19:13.577Z,46.5
2018-06-12T11:24:29.202Z,47.8
2018-06-12T11:29:29.095Z,46.9
2018-06-12T11:34:28.915Z,45.3
2018-06-12T11:39:29.083Z,45.9
2018-06-12T11:44:29.099Z,45.6
2018-06-12T11:49:29.040Z,44.1
2018-06-12T11:54:28.942Z,46.3
2018-06-12T11:59:29.339Z,45.5
2018-06-12T12:04:29.276Z,47.6
2018-06-12T12:09:41.774Z,47.3
2018-06-12T12:14:41.475Z,46.5
2018-06-12T12:19:45.793Z,46.5
2018-06-12T12:24:50.114Z,46.9
2018-06-12T12:29:51.313Z,45
2018-06-12T12:34:49.854Z,42.9
2018-06-12T12:39:49.866Z,44.8
2018-06-12T12:44:52.933Z,44.8
2018-06-12T12:49:52.828Z,44.5
2018-06-12T12:55:05.326Z,43.5
2018-06-12T13:00:05.288Z,42.5
2018-06-12T13:05:05.017Z,43.4
2018-06-12T13:10:05.817Z,43.9
2018-06-12T13:15:05.296Z,44.5
2018-06-12T13:20:06.851Z,45.8
2018-06-12T13:25:06.573Z,46.3
2018-06-12T13:30:06.345Z,46.5
2018-06-12T13:35:06.385Z,47.2
2018-06-12T13:40:06.559Z,46.3
2018-06-12T13:45:06.397Z,46.7
2018-06-12T13:50:06.411Z,46.4
2018-06-12T13:55:09.379Z,48
2018-06-12T14:00:09.258Z,47.5
2018-06-12T14:05:22.143Z,48.5
2018-06-12T14:10:21.854Z,47.6
2018-06-12T14:15:22.079Z,48.2
2018-06-12T14:20:21.889Z,49
2018-06-12T14:25:22.060Z,48.9
2018-06-12T14:30:21.985Z,50.2
2018-06-12T14:35:22.008Z,51.3
2018-06-12T14:40:22.763Z,51.2
2018-06-12T14:45:22.687Z,50.6
2018-06-12T14:50:35.240Z,51.9
2018-06-12T14:55:34.937Z,55.1
2018-06-12T15:00:34.969Z,65.1
2018-06-12T15:05:35.179Z,63.9
2018-06-12T15:10:35.501Z,68.3
2018-06-12T15:15:35.154Z,69.2
2018-06-12T15:20:35.186Z,71.3
2018-06-12T15:25:36.220Z,73.9
2018-06-12T15:30:36.101Z,76.4
2018-06-12T15:35:47.551Z,77.5
2018-06-12T15:40:47.512Z,81
2018-06-12T15:45:47.280Z,81.3
2018-06-12T15:50:48.336Z,80.8
2018-06-12T15:55:47.286Z,83.2
2018-06-12T16:00:47.475Z,84
2018-06-12T16:05:47.301Z,87.2
2018-06-12T16:10:49.741Z,89.1
2018-06-12T16:15:49.393Z,88.6
2018-06-12T16:21:03.015Z,87.7
2018-06-12T16:26:02.316Z,86.7
2018-06-12T16:31:02.425Z,86.6
2018-06-12T16:36:02.531Z,86.8
2018-06-12T16:41:02.300Z,85.7
2018-06-12T16:46:02.307Z,86.7
2018-06-12T16:51:02.415Z,86.1
2018-06-12T16:56:02.380Z,88
2018-06-12T17:01:02.520Z,86.5
2018-06-12T17:06:15.500Z,87.3
2018-06-12T17:11:15.407Z,89.3
2018-06-12T17:16:15.215Z,89.2
2018-06-12T17:21:15.221Z,89.4
2018-06-12T17:26:15.214Z,88.3
2018-06-12T17:31:15.233Z,85.7
2018-06-12T17:36:15.403Z,86.1
2018-06-12T17:41:15.264Z,89
2018-06-12T17:46:15.302Z,91.9
2018-06-12T17:51:15.370Z,91.8
2018-06-12T17:56:16.362Z,92.3
2018-06-12T18:01:15.234Z,92.6
2018-06-12T18:06:15.285Z,93.2
2018-06-12T18:11:16.235Z,95.1
2018-06-12T18:16:26.886Z,93.5
2018-06-12T18:21:28.124Z,93.6
2018-06-12T18:26:26.673Z,94.2
2018-06-12T18:31:26.605Z,94.6
2018-06-12T18:36:26.914Z,94.3
2018-06-12T18:41:26.888Z,92.7
2018-06-12T18:46:26.904Z,93.6
2018-06-12T18:51:30.217Z,93.5
2018-06-12T18:56:29.947Z,93
2018-06-12T19:01:42.081Z,93.9
2018-06-12T19:06:42.112Z,94.3
2018-06-12T19:11:41.867Z,93.3
2018-06-12T19:16:41.840Z,92.7
2018-06-12T19:21:42.094Z,92.2
2018-06-12T19:26:42.042Z,93.6
2018-06-12T19:31:42.092Z,94
2018-06-12T19:36:42.450Z,92.4
2018-06-12T19:41:42.143Z,92
2018-06-12T19:46:54.990Z,92.8
2018-06-12T19:51:54.561Z,94.5
2018-06-12T19:56:54.646Z,96.2
2018-06-12T20:01:54.557Z,96.3
2018-06-12T20:06:54.569Z,92.5
2018-06-12T20:11:54.619Z,95.4
2018-06-12T20:16:54.632Z,94.8
2018-06-12T20:21:55.374Z,94.9
2018-06-12T20:26:56.529Z,92.7
2018-06-12T20:32:12.745Z,93.1
2018-06-12T20:37:11.364Z,91.4
2018-06-12T20:42:11.266Z,92.2
2018-06-12T20:47:11.290Z,92.7
2018-06-12T20:52:11.151Z,92
2018-06-12T20:57:13.837Z,93.9
2018-06-12T21:02:13.695Z,93.6
2018-06-12T21:07:20.983Z,93
2018-06-12T21:12:19.505Z,93.1
2018-06-12T21:17:31.085Z,94.8
2018-06-12T21:22:30.772Z,92.3
2018-06-12T21:27:30.800Z,91.7
2018-06-12T21:32:30.799Z,91.7
2018-06-12T21:37:30.778Z,91.2
2018-06-12T21:42:30.809Z,91.5
2018-06-12T21:47:30.921Z,91.4
2018-06-12T21:52:31.514Z,92.9
2018-06-12T21:57:31.331Z,93.2
2018-06-12T22:02:43.238Z,91.9
2018-06-12T22:07:43.267Z,91.4
2018-06-12T22:12:42.926Z,91.7
2018-06-12T22:17:43.187Z,92.3
2018-06-12T22:22:43.206Z,93.4
2018-06-12T22:27:43.213Z,91.8
2018-06-12T22:32:43.388Z,93.4
2018-06-12T22:37:45.373Z,91.9
2018-06-12T22:42:44.848Z,91.3
2018-06-12T22:47:59.019Z,90.8
2018-06-12T22:52:58.891Z,94.7
2018-06-12T22:57:58.740Z,93.6
2018-06-12T23:02:58.963Z,92.4
2018-06-12T23:07:58.867Z,93
2018-06-12T23:12:58.919Z,93.1
2018-06-12T23:17:58.752Z,93.3
2018-06-12T23:22:58.960Z,92.1
2018-06-12T23:27:58.894Z,93.4
2018-06-12T23:33:11.448Z,93
2018-06-12T23:38:11.248Z,92.3
2018-06-12T23:43:11.165Z,92.6
2018-06-12T23:48:11.522Z,92
2018-06-12T23:53:11.268Z,93.3
2018-06-12T23:58:11.173Z,94.9
